Time;durP1;ratioP1;P1;durP2;ratioP2;P2;SDS_P1;SDS_P2;PMS_P1;PMS_P2;Temp;Humidity;BMP_temperature;BMP_pressure;BME280_temperature;BME280_humidity;BME280_pressure;Samples;Min_cycle;Max_cycle;Signal;HPM_P1;HPM_P2
2022/01/22 00:00:12;;;;;;;21.98;8.25;;;;;;;3.76;89.70;103246.19;5008974;28;20037;-75
2022/01/22 00:02:38;;;;;;;23.67;7.95;;;;;;;3.76;89.77;103240.88;5058310;28;20116;-75
2022/01/22 00:05:05;;;;;;;19.17;6.90;;;;;;;3.77;89.89;103240.00;5026041;28;20120;-75
2022/01/22 00:07:31;;;;;;;20.33;7.43;;;;;;;3.77;89.88;103234.69;5026137;28;20036;-76
2022/01/22 00:10:03;;;;;;;23.77;8.15;;;;;;;3.77;90.03;103237.34;5027401;28;20026;-75
2022/01/22 00:15:16;;;;;;;22.30;8.00;;;;;;;3.78;89.67;103230.25;5011348;28;20042;-75
2022/01/22 00:17:42;;;;;;;22.15;7.10;;;;;;;3.76;89.80;103224.06;5027157;28;20433;-75
2022/01/22 00:20:09;;;;;;;22.08;6.75;;;;;;;3.77;89.67;103226.69;5027909;28;20072;-75
2022/01/22 00:22:35;;;;;;;19.65;6.70;;;;;;;3.76;89.91;103229.38;5025643;28;20063;-75
2022/01/22 00:25:02;;;;;;;18.67;6.40;;;;;;;3.73;89.96;103216.97;5026679;28;20033;-75
2022/01/22 00:27:28;;;;;;;19.85;6.65;;;;;;;3.74;89.71;103229.38;5027762;28;20123;-75
2022/01/22 00:29:54;;;;;;;25.10;6.10;;;;;;;3.75;89.99;103223.19;5027963;28;20032;-75
2022/01/22 00:32:19;;;;;;;18.80;6.70;;;;;;;3.75;89.88;103224.94;5034443;28;20037;-75
2022/01/22 00:34:44;;;;;;;15.68;5.63;;;;;;;3.76;90.25;103206.31;5033236;28;20060;-75
2022/01/22 00:37:10;;;;;;;18.58;5.97;;;;;;;3.76;90.00;103203.66;5028920;28;20477;-75
2022/01/22 00:39:36;;;;;;;19.10;6.72;;;;;;;3.76;90.08;103198.31;5029615;28;20029;-75
2022/01/22 00:42:04;;;;;;;19.58;6.85;;;;;;;3.77;90.02;103202.75;5032298;28;20037;-75
2022/01/22 00:44:29;;;;;;;21.77;7.45;;;;;;;3.77;89.89;103209.88;5032287;28;20049;-75
2022/01/22 00:46:55;;;;;;;17.88;6.30;;;;;;;3.79;90.18;103210.72;5030586;28;20052;-75
2022/01/22 00:49:20;;;;;;;18.25;6.22;;;;;;;3.79;90.35;103203.66;5038644;28;20111;-75
2022/01/22 00:51:45;;;;;;;22.58;7.25;;;;;;;3.78;90.25;103204.53;5028323;28;20405;-75
2022/01/22 00:54:11;;;;;;;18.00;6.50;;;;;;;3.80;89.96;103204.53;5031769;28;20040;-75
2022/01/22 00:56:37;;;;;;;17.77;6.32;;;;;;;3.80;89.76;103202.75;5029455;28;20029;-75
2022/01/22 00:59:02;;;;;;;19.50;7.28;;;;;;;3.80;90.24;103204.53;5048969;28;20032;-75
2022/01/22 01:01:28;;;;;;;19.50;6.78;;;;;;;3.80;90.09;103208.06;5035682;28;20040;-75
2022/01/22 01:03:57;;;;;;;21.92;6.53;;;;;;;3.80;90.03;103213.38;5031777;28;20025;-75
2022/01/22 01:06:22;;;;;;;20.33;7.00;;;;;;;3.81;90.01;103217.81;5029639;28;20497;-75
2022/01/22 01:08:47;;;;;;;20.30;7.57;;;;;;;3.81;90.41;103223.13;5031134;28;20090;-75
2022/01/22 01:11:14;;;;;;;22.85;7.50;;;;;;;3.82;89.68;103219.59;5031150;28;20083;-75
2022/01/22 01:13:44;;;;;;;22.08;7.30;;;;;;;3.82;89.89;103227.56;5031080;28;20032;-75
2022/01/22 01:16:44;;;;;;;;;;;;;;;3.90;90.24;103223.97;5029753;28;20051;-75
2022/01/22 01:33:01;;;;;;;27.65;7.82;;;;;;;3.85;90.21;103219.56;5041149;28;20456;-75
2022/01/22 01:35:27;;;;;;;23.80;8.63;;;;;;;3.86;90.26;103223.09;5030844;28;20026;-75
2022/01/22 01:37:55;;;;;;;27.55;8.18;;;;;;;3.87;90.05;103216.03;5061523;28;20025;-75
2022/01/22 01:40:23;;;;;;;22.95;8.38;;;;;;;3.87;89.79;103214.22;5028888;28;20065;-75
2022/01/22 01:45:22;;;;;;;21.90;8.68;;;;;;;3.87;90.39;103224.88;5029787;28;20475;-76
2022/01/22 01:47:56;;;;;;;25.05;9.02;;;;;;;3.89;90.66;103222.19;5030258;28;20064;-76
2022/01/22 01:50:22;;;;;;;21.95;8.35;;;;;;;3.89;91.03;103224.88;5031246;28;20036;-76
2022/01/22 01:53:02;;;;;;;23.35;9.00;;;;;;;3.88;90.87;103229.31;5029228;28;20338;-76
2022/01/22 01:55:35;;;;;;;22.73;8.30;;;;;;;3.89;91.34;103224.88;5031069;28;20033;-75
2022/01/22 01:58:01;;;;;;;21.75;7.93;;;;;;;3.87;90.93;103222.22;5029862;28;20083;-75
2022/01/22 02:00:27;;;;;;;22.63;8.45;;;;;;;3.89;91.35;103216.88;5042379;28;20025;-75
2022/01/22 02:02:53;;;;;;;21.35;8.95;;;;;;;3.88;91.36;103220.41;5048333;28;20036;-75
2022/01/22 02:05:21;;;;;;;24.77;9.70;;;;;;;3.87;91.21;103211.56;5049444;28;20119;-75
2022/01/22 02:07:48;;;;;;;24.08;9.55;;;;;;;3.87;91.07;103211.56;5009561;28;20072;-75
2022/01/22 02:10:20;;;;;;;22.95;9.52;;;;;;;3.88;91.07;103209.78;5029075;28;20108;-75
2022/01/22 02:13:38;;;;;;;24.10;9.77;;;;;;;3.88;91.42;103218.66;5029858;28;20030;-76
2022/01/22 02:23:49;;;;;;;27.13;11.55;;;;;;;3.88;91.83;103218.66;5030889;28;20197;-75
2022/01/22 02:26:15;;;;;;;22.98;11.15;;;;;;;3.89;91.66;103215.09;5030516;28;20033;-75
2022/01/22 02:28:42;;;;;;;27.60;12.65;;;;;;;3.90;92.23;103216.00;5031138;28;20115;-75
2022/01/22 02:34:02;;;;;;;29.10;12.93;;;;;;;3.87;92.90;103210.69;5039230;28;20044;-75
2022/01/22 02:36:38;;;;;;;25.00;12.32;;;;;;;3.85;93.34;103208.94;5045715;28;20434;-75
2022/01/22 02:39:14;;;;;;;27.17;13.65;;;;;;;3.84;93.67;103211.59;5029836;28;20374;-75
2022/01/22 02:41:46;;;;;;;31.95;13.68;;;;;;;3.85;93.83;103208.03;5053268;28;20182;-75
2022/01/22 02:44:14;;;;;;;31.08;14.05;;;;;;;3.84;93.87;103207.16;5029408;28;20499;-75
2022/01/22 02:46:42;;;;;;;28.58;13.85;;;;;;;3.85;93.91;103216.91;5029176;28;20121;-75
2022/01/22 02:49:08;;;;;;;26.13;13.57;;;;;;;3.83;93.96;103221.34;5029435;28;20025;-75
2022/01/22 02:51:33;;;;;;;26.50;14.07;;;;;;;3.83;93.88;103209.81;5028082;28;20631;-75
2022/01/22 02:54:00;;;;;;;26.95;13.63;;;;;;;3.82;94.05;103216.94;5027925;28;20041;-75
2022/01/22 02:56:25;;;;;;;28.50;14.13;;;;;;;3.82;93.40;103216.94;5027941;28;20124;-75
2022/01/22 02:58:52;;;;;;;25.85;12.38;;;;;;;3.84;93.88;103211.59;5029306;28;20116;-75
2022/01/22 03:01:18;;;;;;;31.40;14.20;;;;;;;3.85;93.78;103222.22;5038712;28;20037;-75
2022/01/22 03:03:44;;;;;;;29.45;13.60;;;;;;;3.85;93.87;103216.91;5031202;28;20104;-75
2022/01/22 03:06:10;;;;;;;25.20;12.68;;;;;;;3.85;93.81;103221.31;5028700;28;20433;-75
2022/01/22 03:08:38;;;;;;;27.45;13.30;;;;;;;3.86;94.03;103225.75;5028678;28;20067;-75
2022/01/22 03:11:07;;;;;;;29.73;13.27;;;;;;;3.87;94.49;103224.88;5028122;28;20433;-75
2022/01/22 03:16:30;;;;;;;25.75;13.88;;;;;;;3.87;94.46;103224.00;5028997;28;20029;-75
2022/01/22 03:19:12;;;;;;;30.75;13.85;;;;;;;3.88;94.30;103217.75;5037706;28;20033;-75
2022/01/22 03:21:42;;;;;;;26.83;13.13;;;;;;;3.87;94.73;103218.69;5033093;28;20036;-75
2022/01/22 03:29:40;;;;;;;28.52;15.52;;;;;;;3.88;94.44;103217.75;5028037;28;20931;-75
2022/01/22 03:32:08;;;;;;;28.55;14.60;;;;;;;3.87;94.73;103224.00;5040180;28;20029;-75
2022/01/22 03:34:41;;;;;;;28.20;14.48;;;;;;;3.87;94.84;103221.34;5032172;28;20055;-75
2022/01/22 03:37:07;;;;;;;29.88;14.88;;;;;;;3.85;94.95;103221.31;5027206;28;20025;-75
2022/01/22 03:39:33;;;;;;;34.92;15.68;;;;;;;3.85;95.35;103219.56;5027952;28;20033;-75
2022/01/22 03:41:58;;;;;;;44.33;16.38;;;;;;;3.85;95.12;103213.34;5028434;28;20114;-75
2022/01/22 03:44:23;;;;;;;29.27;16.33;;;;;;;3.87;95.01;103221.34;5026764;28;20391;-75
2022/01/22 03:46:48;;;;;;;33.40;16.35;;;;;;;3.87;95.01;103218.69;5026526;28;20014;-76
2022/01/22 03:49:16;;;;;;;30.63;17.08;;;;;;;3.87;95.08;103224.88;5033488;28;20029;-76
2022/01/22 03:51:42;;;;;;;30.02;17.88;;;;;;;3.88;95.31;103225.75;5026623;28;20091;-75
2022/01/22 03:54:07;;;;;;;31.13;17.20;;;;;;;3.89;95.67;103219.53;5028043;28;20017;-75
2022/01/22 03:56:33;;;;;;;32.35;17.77;;;;;;;3.89;95.56;103219.53;5027579;28;20379;-75
2022/01/22 03:58:58;;;;;;;35.00;19.27;;;;;;;3.90;95.87;103216.00;5029409;28;20025;-75
2022/01/22 04:04:14;;;;;;;30.38;18.33;;;;;;;3.90;96.01;103214.22;5030063;28;20346;-75
2022/01/22 04:09:27;;;;;;;34.13;20.58;;;;;;;3.89;96.18;103212.44;5026552;28;20101;-75
2022/01/22 04:11:55;;;;;;;41.20;20.73;;;;;;;3.91;96.15;103217.75;5025756;28;20520;-75
2022/01/22 04:14:25;;;;;;;35.40;18.58;;;;;;;3.91;96.31;103207.09;5028155;28;20030;-76
2022/01/22 04:17:21;;;;;;;35.25;20.35;;;;;;;3.92;96.18;103216.84;5027958;28;20121;-76
2022/01/22 04:25:08;;;;;;;31.95;20.17;;;;;;;3.95;96.22;103207.09;5028690;28;20036;-75
2022/01/22 04:27:33;;;;;;;36.47;20.83;;;;;;;3.95;96.43;103208.84;5025952;28;20112;-75
2022/01/22 04:29:59;;;;;;;35.00;21.25;;;;;;;3.93;96.90;103205.31;5029119;28;20097;-75
2022/01/22 04:32:30;;;;;;;36.45;20.67;;;;;;;3.95;96.63;103214.16;5031174;28;20123;-75
2022/01/22 04:34:56;;;;;;;33.63;20.40;;;;;;;3.96;96.63;103210.63;5045883;28;20028;-75
2022/01/22 04:37:24;;;;;;;35.15;20.73;;;;;;;3.96;96.80;103205.31;5029688;28;20033;-75
2022/01/22 04:39:50;;;;;;;34.35;20.05;;;;;;;3.97;96.91;103212.41;5026384;28;20037;-75
2022/01/22 04:42:16;;;;;;;34.13;22.83;;;;;;;3.96;96.79;103207.97;5025988;28;20339;-75
2022/01/22 04:44:59;;;;;;;38.08;22.95;;;;;;;3.94;96.66;103207.97;5025584;28;20044;-75
2022/01/22 04:47:34;;;;;;;35.70;21.30;;;;;;;3.95;96.79;103215.06;5026089;28;20124;-75
2022/01/22 04:54:58;;;;;;;34.33;21.42;;;;;;;3.97;96.81;103207.94;5032369;28;20178;-75
2022/01/22 04:55:29;;;;;;;34.38;20.10;;;;;;;3.96;96.99;103222.13;5040534;28;20040;-75
2022/01/22 04:57:54;;;;;;;37.67;21.33;;;;;;;3.96;96.91;103219.47;5027696;28;20037;-75
2022/01/22 05:00:20;;;;;;;37.28;21.35;;;;;;;3.98;96.96;103222.13;5027403;28;20029;-75
2022/01/22 05:02:45;;;;;;;37.40;23.52;;;;;;;3.97;96.91;103217.72;5036914;28;20508;-75
2022/01/22 05:05:11;;;;;;;37.90;21.63;;;;;;;4.00;97.12;103213.25;5029495;28;20048;-75
2022/01/22 05:07:36;;;;;;;36.63;20.90;;;;;;;4.01;96.85;103211.44;5025876;28;20029;-75
2022/01/22 05:10:03;;;;;;;35.58;20.60;;;;;;;4.00;97.30;103207.91;5027710;28;20026;-75
2022/01/22 05:12:29;;;;;;;39.17;22.88;;;;;;;4.03;96.85;103207.91;5026229;28;20045;-75
2022/01/22 05:14:54;;;;;;;38.38;22.33;;;;;;;4.04;96.87;103211.44;5040405;28;20111;-75
2022/01/22 05:17:20;;;;;;;40.05;23.58;;;;;;;4.03;97.19;103212.34;5043213;28;20039;-75
2022/01/22 05:19:59;;;;;;;37.20;20.52;;;;;;;4.04;96.88;103214.09;5027012;28;20032;-75
2022/01/22 05:25:14;;;;;;;34.67;21.08;;;;;;;4.03;97.29;103209.69;5031611;28;20037;-75
2022/01/22 05:27:55;;;;;;;37.25;21.90;;;;;;;4.05;97.03;103209.66;5035448;28;20025;-75
2022/01/22 05:38:31;;;;;;;37.25;22.38;;;;;;;4.06;97.23;103206.13;5023427;28;20048;-75
2022/01/22 05:40:56;;;;;;;38.22;22.42;;;;;;;4.06;97.25;103201.66;5030503;28;20025;-75
2022/01/22 05:43:21;;;;;;;33.63;19.80;;;;;;;4.08;97.07;103209.63;5030894;28;20029;-75
2022/01/22 05:45:47;;;;;;;39.60;22.88;;;;;;;4.07;97.38;103211.44;5028922;28;20022;-75
2022/01/22 05:48:12;;;;;;;37.22;21.50;;;;;;;4.07;97.42;103208.78;5028883;28;20105;-75
2022/01/22 05:50:50;;;;;;;41.92;23.23;;;;;;;4.10;96.88;103210.50;5028708;28;20022;-75
2022/01/22 05:53:33;;;;;;;37.97;22.42;;;;;;;4.10;97.13;103207.84;5024809;28;20029;-75
2022/01/22 06:01:31;;;;;;;38.25;21.45;;;;;;;4.13;97.03;103218.44;5035085;28;20079;-76
2022/01/22 06:03:56;;;;;;;34.28;20.17;;;;;;;4.12;97.05;103214.06;5032316;28;20060;-75
2022/01/22 06:06:21;;;;;;;37.55;20.83;;;;;;;4.11;97.38;103210.47;5024892;28;20072;-75
2022/01/22 06:08:52;;;;;;;36.65;21.67;;;;;;;4.13;97.25;103219.34;5021005;28;20099;-75
2022/01/22 06:11:23;;;;;;;37.40;20.65;;;;;;;4.13;97.20;103222.03;5024920;28;20056;-75
2022/01/22 06:13:49;;;;;;;34.42;18.42;;;;;;;4.14;97.45;103221.13;5012702;28;20101;-75
2022/01/22 06:16:18;;;;;;;36.13;22.10;;;;;;;4.16;97.47;103224.66;5016654;28;20046;-75
2022/01/22 06:18:43;;;;;;;32.67;19.15;;;;;;;4.18;97.29;103221.97;5040898;28;20025;-75
2022/01/22 06:21:09;;;;;;;31.88;19.08;;;;;;;4.18;97.46;103228.16;5023505;28;20025;-75
2022/01/22 06:23:35;;;;;;;34.75;19.73;;;;;;;4.18;97.33;103222.84;5013736;28;20041;-75
2022/01/22 06:26:01;;;;;;;36.95;20.65;;;;;;;4.19;97.26;103213.97;5030785;28;20448;-75
2022/01/22 06:28:27;;;;;;;35.28;21.13;;;;;;;4.20;97.34;103220.16;5037421;28;20036;-75
2022/01/22 06:30:52;;;;;;;35.80;21.25;;;;;;;4.18;97.55;103217.53;5027030;28;20129;-75
2022/01/22 06:33:18;;;;;;;35.17;19.15;;;;;;;4.18;97.73;103214.00;5021886;28;20155;-75
2022/01/22 06:35:43;;;;;;;33.78;19.67;;;;;;;4.19;97.76;103215.75;5036197;28;20037;-75
2022/01/22 06:38:09;;;;;;;33.55;18.33;;;;;;;4.18;97.91;103217.53;5036127;28;20017;-75
2022/01/22 06:43:00;;;;;;;34.63;19.77;;;;;;;4.22;97.70;103222.81;5029648;28;20032;-76
2022/01/22 06:45:25;;;;;;;36.58;19.27;;;;;;;4.22;97.54;103228.16;5035688;28;20104;-76
2022/01/22 06:47:50;;;;;;;34.13;19.15;;;;;;;4.23;97.62;103240.56;5028554;28;20489;-76
2022/01/22 06:50:18;;;;;;;33.85;17.83;;;;;;;4.23;97.53;103229.91;5033572;28;20115;-76
2022/01/22 06:52:43;;;;;;;35.88;19.50;;;;;;;4.25;97.29;103237.00;5026517;28;20120;-76
2022/01/22 06:55:11;;;;;;;31.40;17.75;;;;;;;4.26;97.11;103229.88;5034993;28;20112;-76
2022/01/22 06:57:36;;;;;;;33.10;17.45;;;;;;;4.27;97.20;103237.84;5028151;28;20499;-76
2022/01/22 07:00:03;;;;;;;32.55;17.30;;;;;;;4.30;97.19;103234.28;5031045;28;20096;-76
2022/01/22 07:02:29;;;;;;;31.15;16.85;;;;;;;4.31;97.23;103244.06;5030439;28;20025;-76
2022/01/22 07:04:54;;;;;;;37.28;19.25;;;;;;;4.31;97.11;103233.41;5029873;28;20481;-75
2022/01/22 07:07:19;;;;;;;32.63;18.70;;;;;;;4.32;97.10;103229.81;5039615;28;20038;-75
2022/01/22 07:09:45;;;;;;;34.25;17.40;;;;;;;4.34;96.92;103238.72;5030785;28;20028;-75
2022/01/22 07:12:12;;;;;;;34.92;18.90;;;;;;;4.32;97.32;103241.38;5032322;28;20064;-75
2022/01/22 07:14:37;;;;;;;33.60;18.40;;;;;;;4.34;96.94;103249.34;5045074;28;20726;-75
2022/01/22 07:17:03;;;;;;;37.35;18.20;;;;;;;4.35;97.14;103251.13;5029442;28;20032;-75
2022/01/22 07:19:29;;;;;;;33.95;17.35;;;;;;;4.35;97.12;103261.78;5037255;28;20130;-75
2022/01/22 07:22:05;;;;;;;37.08;18.60;;;;;;;4.35;97.14;103265.31;5042895;28;20116;-76
2022/01/22 07:24:37;;;;;;;31.60;17.02;;;;;;;4.37;96.90;103271.50;5009531;28;20029;-76
2022/01/22 07:27:03;;;;;;;31.33;16.45;;;;;;;4.38;97.63;103283.06;5008140;28;20366;-76
2022/01/22 07:29:29;;;;;;;32.85;17.83;;;;;;;4.39;97.53;103274.16;5027205;28;20029;-76
2022/01/22 07:31:54;;;;;;;32.53;17.02;;;;;;;4.40;97.63;103275.91;5028517;28;20040;-76
2022/01/22 07:34:19;;;;;;;36.85;18.05;;;;;;;4.42;97.56;103275.91;5027485;28;20048;-76
2022/01/22 07:36:44;;;;;;;33.58;18.08;;;;;;;4.42;97.83;103278.56;5027118;28;20064;-76
2022/01/22 07:39:10;;;;;;;36.03;18.52;;;;;;;4.43;97.81;103280.34;5028084;28;20033;-76
2022/01/22 07:41:36;;;;;;;30.55;17.35;;;;;;;4.43;97.60;103278.56;5028076;28;20037;-76
2022/01/22 07:44:01;;;;;;;32.08;18.08;;;;;;;4.44;97.88;103282.13;5027985;28;20045;-76
2022/01/22 07:46:27;;;;;;;37.10;18.02;;;;;;;4.45;97.69;103289.19;5025780;28;20031;-75
2022/01/22 07:48:53;;;;;;;35.10;18.05;;;;;;;4.44;97.72;103288.31;5030794;28;20036;-75
2022/01/22 07:51:18;;;;;;;33.47;16.65;;;;;;;4.45;97.93;103279.44;5027370;28;20128;-75
2022/01/22 07:53:45;;;;;;;30.80;14.93;;;;;;;4.47;97.98;103285.63;5028636;28;20469;-76
2022/01/22 07:56:13;;;;;;;36.63;18.42;;;;;;;4.46;98.11;103281.19;5032986;28;20029;-75
2022/01/22 07:58:39;;;;;;;32.97;16.75;;;;;;;4.47;97.86;103271.44;5031156;28;20035;-77
2022/01/22 08:01:04;;;;;;;35.35;17.23;;;;;;;4.47;97.91;103272.31;5030886;28;20443;-76
2022/01/22 08:03:30;;;;;;;45.58;17.33;;;;;;;4.47;97.86;103277.63;5047547;28;20166;-75
2022/01/22 08:05:55;;;;;;;32.55;17.67;;;;;;;4.48;98.15;103281.16;5039612;28;20052;-75
2022/01/22 08:08:21;;;;;;;32.08;16.90;;;;;;;4.48;97.81;103283.84;5026451;28;20087;-75
2022/01/22 08:10:46;;;;;;;39.20;17.92;;;;;;;4.49;97.77;103275.84;5026323;28;20128;-75
2022/01/22 08:13:12;;;;;;;29.00;16.42;;;;;;;4.50;97.52;103277.59;5029170;28;20034;-75
2022/01/22 08:15:37;;;;;;;31.70;17.05;;;;;;;4.51;97.50;103274.06;5026247;28;20038;-75
2022/01/22 08:18:04;;;;;;;33.33;19.08;;;;;;;4.54;97.41;103278.47;5026364;28;20095;-75
2022/01/22 08:20:29;;;;;;;31.52;16.70;;;;;;;4.55;97.60;103274.91;5025597;28;20327;-75
2022/01/22 08:22:54;;;;;;;30.80;16.13;;;;;;;4.54;97.21;103274.03;5027283;28;20036;-76
2022/01/22 08:25:20;;;;;;;30.60;17.25;;;;;;;4.58;97.19;103284.66;5026315;28;20092;-76
2022/01/22 08:30:27;;;;;;;35.78;16.58;;;;;;;4.63;96.93;103277.50;5038464;28;20036;-76
2022/01/22 08:38:04;;;;;;;29.58;16.40;;;;;;;4.67;96.75;103279.22;5024309;28;20114;-76
2022/01/22 08:40:30;;;;;;;37.17;16.17;;;;;;;4.71;96.93;103283.63;5025574;28;20113;-76
2022/01/22 08:42:55;;;;;;;35.28;15.38;;;;;;;4.71;96.50;103275.63;5026579;28;20037;-76
2022/01/22 08:45:20;;;;;;;31.63;16.05;;;;;;;4.74;96.33;103275.59;5026087;28;20034;-76
2022/01/22 08:47:45;;;;;;;36.47;16.08;;;;;;;4.76;96.38;103276.50;5024990;28;20112;-76
2022/01/22 08:50:11;;;;;;;33.63;14.80;;;;;;;4.80;96.38;103269.34;5027477;28;20405;-76
2022/01/22 08:52:36;;;;;;;31.13;14.63;;;;;;;4.83;96.25;103275.53;5024643;28;20029;-76
2022/01/22 08:55:04;;;;;;;29.60;14.65;;;;;;;4.85;96.15;103273.72;5029285;28;20044;-76
2022/01/22 08:57:30;;;;;;;28.25;14.55;;;;;;;4.87;96.14;103277.25;5030842;28;20034;-76
2022/01/22 08:59:55;;;;;;;28.30;13.77;;;;;;;4.89;95.77;103282.56;5031129;28;20473;-76
2022/01/22 09:02:21;;;;;;;31.42;14.10;;;;;;;4.93;96.10;103294.09;5043418;28;20110;-76
2022/01/22 09:04:46;;;;;;;29.13;13.65;;;;;;;4.95;95.96;103293.19;5048206;28;20024;-76
2022/01/22 09:07:13;;;;;;;29.92;14.20;;;;;;;4.96;95.89;103292.25;5029063;28;20059;-76
2022/01/22 09:09:38;;;;;;;30.73;15.95;;;;;;;4.99;95.85;103297.59;5032950;28;20032;-75
2022/01/22 09:12:06;;;;;;;30.42;13.57;;;;;;;5.00;95.68;103304.66;5030673;28;20052;-75
2022/01/22 09:14:32;;;;;;;31.73;13.73;;;;;;;5.03;95.83;103309.09;5039918;28;20048;-75
2022/01/22 09:16:59;;;;;;;31.02;12.85;;;;;;;5.04;95.75;103316.19;5035469;28;20037;-75
2022/01/22 09:19:32;;;;;;;32.00;14.75;;;;;;;5.06;95.55;103311.72;5033197;28;20037;-75
2022/01/22 09:22:01;;;;;;;28.25;14.55;;;;;;;5.08;95.68;103313.47;5036634;28;20370;-75
2022/01/22 09:24:26;;;;;;;27.27;14.38;;;;;;;5.10;95.65;103316.13;5033986;28;20639;-75
2022/01/22 09:26:51;;;;;;;28.90;14.13;;;;;;;5.12;95.43;103319.63;5034237;28;20025;-75
2022/01/22 09:29:17;;;;;;;30.10;14.00;;;;;;;5.12;95.46;103319.63;5030290;28;20108;-75
2022/01/22 09:31:44;;;;;;;31.77;14.90;;;;;;;5.14;95.71;103316.97;5040252;28;20020;-75
2022/01/22 09:34:09;;;;;;;30.08;15.02;;;;;;;5.14;95.44;103315.19;5034526;28;20024;-75
2022/01/22 09:36:35;;;;;;;33.38;14.68;;;;;;;5.15;95.45;103308.94;5033853;28;20544;-75
2022/01/22 09:39:03;;;;;;;27.45;14.48;;;;;;;5.16;95.24;103312.50;5035512;28;20060;-75
2022/01/22 09:41:29;;;;;;;25.65;13.48;;;;;;;5.16;95.51;103316.06;5059831;28;20036;-75
2022/01/22 09:43:55;;;;;;;30.65;15.30;;;;;;;5.18;95.81;103324.94;5026250;28;20438;-75
2022/01/22 09:46:22;;;;;;;30.20;15.15;;;;;;;5.21;95.70;103335.56;5032281;28;20038;-76
2022/01/22 09:48:49;;;;;;;32.33;14.80;;;;;;;5.22;95.37;103339.97;5037836;28;20036;-76
2022/01/22 09:51:15;;;;;;;30.55;15.32;;;;;;;5.22;95.13;103339.97;5034724;28;20057;-76
2022/01/22 09:53:42;;;;;;;29.55;15.52;;;;;;;5.25;95.23;103347.94;5029139;28;20391;-76
2022/01/22 09:56:08;;;;;;;30.08;14.43;;;;;;;5.27;95.22;103347.03;5029470;28;20026;-76
2022/01/22 09:58:34;;;;;;;29.05;14.23;;;;;;;5.30;95.42;103349.66;5028736;28;20111;-76
2022/01/22 10:01:18;;;;;;;31.52;14.80;;;;;;;5.32;95.29;103346.09;5030318;28;20032;-76
2022/01/22 10:03:43;;;;;;;31.90;15.38;;;;;;;5.34;95.22;103343.41;5028415;28;20032;-75
2022/01/22 10:06:19;;;;;;;27.08;14.82;;;;;;;5.36;95.46;103345.16;5027421;28;20036;-75
2022/01/22 10:08:45;;;;;;;29.27;15.18;;;;;;;5.38;95.41;103350.47;5026696;28;20044;-75
2022/01/22 10:11:19;;;;;;;27.88;14.43;;;;;;;5.38;94.91;103342.47;5029228;28;20053;-75
2022/01/22 10:13:47;;;;;;;31.05;14.25;;;;;;;5.38;94.99;103348.69;5028595;28;20480;-75
2022/01/22 10:16:26;;;;;;;34.72;15.85;;;;;;;5.41;95.01;103351.31;5027543;28;20107;-75
2022/01/22 10:19:10;;;;;;;30.92;14.77;;;;;;;5.43;94.63;103345.97;5022701;28;20033;-76
2022/01/22 10:21:37;;;;;;;31.83;14.07;;;;;;;5.43;95.27;103345.97;5024965;28;20057;-76
2022/01/22 10:24:46;;;;;;;34.58;16.63;;;;;;;5.46;95.42;103351.28;5024385;28;20029;-76
2022/01/22 10:27:11;;;;;;;34.75;16.77;;;;;;;5.48;95.27;103354.81;5025589;28;20477;-76
2022/01/22 10:29:36;;;;;;;31.95;15.55;;;;;;;5.48;94.90;103344.13;5030085;28;20018;-76
2022/01/22 10:32:03;;;;;;;27.50;14.65;;;;;;;5.50;95.11;103353.00;5028905;28;20108;-76
2022/01/22 10:34:30;;;;;;;27.40;14.70;;;;;;;5.52;94.92;103344.97;5029139;28;20048;-76
2022/01/22 10:36:59;;;;;;;28.42;14.60;;;;;;;5.52;94.45;103347.63;5027929;28;20091;-76
2022/01/22 10:39:26;;;;;;;30.40;14.93;;;;;;;5.54;94.68;103348.53;5028260;28;20379;-76
2022/01/22 10:41:52;;;;;;;31.85;15.30;;;;;;;5.54;94.35;103349.41;5028580;28;20062;-76
2022/01/22 10:44:23;;;;;;;34.60;14.40;;;;;;;5.55;94.36;103345.84;5028426;28;20759;-76
2022/01/22 10:46:51;;;;;;;41.67;22.40;;;;;;;5.57;94.26;103338.69;5029549;28;20076;-77
2022/01/22 10:49:22;;;;;;;32.22;17.08;;;;;;;5.58;94.04;103334.25;5048479;28;20025;-77
2022/01/22 10:51:51;;;;;;;30.20;17.13;;;;;;;5.62;93.77;103343.97;5034216;28;20047;-77
2022/01/22 10:54:22;;;;;;;33.13;17.38;;;;;;;5.65;93.73;103361.72;5045963;28;20021;-77
2022/01/22 10:56:48;;;;;;;33.25;16.48;;;;;;;5.66;93.44;103359.03;5036950;28;20021;-77
2022/01/22 10:59:17;;;;;;;34.83;17.27;;;;;;;5.66;93.72;103353.69;5046057;28;20548;-77
2022/01/22 11:01:51;;;;;;;34.35;18.30;;;;;;;5.68;93.55;103351.00;5038785;28;20024;-77
2022/01/22 11:04:20;;;;;;;32.70;17.67;;;;;;;5.68;92.46;103357.25;5047024;28;20480;-77
2022/01/22 11:06:56;;;;;;;41.15;16.08;;;;;;;5.70;92.78;103357.22;5026999;28;20023;-78
2022/01/22 11:09:23;;;;;;;31.73;15.07;;;;;;;5.69;92.96;103353.66;5028548;28;20037;-76
2022/01/22 11:11:50;;;;;;;32.05;15.43;;;;;;;5.70;92.84;103354.56;5031153;28;20093;-76
2022/01/22 11:14:16;;;;;;;30.52;17.20;;;;;;;5.67;92.70;103347.47;5026434;28;20033;-76
2022/01/22 11:16:45;;;;;;;29.30;15.32;;;;;;;5.68;92.20;103348.34;5034547;28;20083;-76
2022/01/22 11:19:13;;;;;;;31.05;16.45;;;;;;;5.70;92.45;103349.22;5024823;28;20041;-76
2022/01/22 11:21:44;;;;;;;29.92;16.45;;;;;;;5.70;92.84;103338.56;5026534;28;20033;-75
2022/01/22 11:24:11;;;;;;;30.58;15.73;;;;;;;5.70;92.37;103334.09;5026640;28;20059;-76
2022/01/22 11:26:42;;;;;;;32.22;17.20;;;;;;;5.71;92.14;103322.53;5032678;28;20040;-75
2022/01/22 11:29:08;;;;;;;29.02;15.25;;;;;;;5.73;92.31;103319.84;5029078;28;20367;-75
2022/01/22 11:31:37;;;;;;;31.00;17.30;;;;;;;5.74;93.11;103321.56;5036392;28;20043;-75
2022/01/22 11:34:04;;;;;;;29.20;16.05;;;;;;;5.75;92.20;103323.34;5034376;28;20139;-75
2022/01/22 11:36:40;;;;;;;31.52;17.13;;;;;;;5.75;92.67;103332.25;5024343;28;20021;-75
2022/01/22 11:39:06;;;;;;;37.30;17.02;;;;;;;5.75;91.77;103326.00;5036525;28;20055;-75
2022/01/22 11:41:32;;;;;;;29.80;16.40;;;;;;;5.75;92.06;103332.25;5035860;28;20481;-75
2022/01/22 11:46:36;;;;;;;33.92;16.42;;;;;;;5.77;91.85;103324.22;5029388;28;20133;-75
2022/01/22 11:49:09;;;;;;;34.10;17.80;;;;;;;5.78;91.84;103325.97;5007133;28;20045;-76
2022/01/22 11:51:35;;;;;;;31.25;18.13;;;;;;;5.78;91.86;103316.19;5025715;28;20272;-76
2022/01/22 11:54:00;;;;;;;31.02;17.88;;;;;;;5.78;91.78;103324.22;5032108;28;20486;-76
2022/01/22 11:56:47;;;;;;;34.80;17.90;;;;;;;5.79;92.15;103327.75;5041345;28;20059;-76
2022/01/22 11:59:18;;;;;;;35.00;17.75;;;;;;;5.82;92.18;103326.84;5044267;28;20032;-75
2022/01/22 12:04:14;;;;;;;37.08;19.08;;;;;;;5.83;92.10;103328.56;5031317;28;20037;-75
2022/01/22 12:07:00;;;;;;;36.05;18.35;;;;;;;5.85;92.12;103316.97;5039823;28;20075;-75
2022/01/22 12:09:26;;;;;;;33.05;17.13;;;;;;;5.84;92.42;103323.25;5045997;28;20799;-75
2022/01/22 12:14:47;;;;;;;35.72;19.63;;;;;;;5.85;92.38;103316.09;5038254;28;20120;-75
2022/01/22 12:17:19;;;;;;;32.25;18.38;;;;;;;5.82;91.64;103321.50;5017607;28;20068;-75
2022/01/22 12:19:50;;;;;;;37.25;18.30;;;;;;;5.78;92.23;103321.53;5040768;28;20481;-76
2022/01/22 12:22:34;;;;;;;32.85;17.77;;;;;;;5.80;92.40;103318.84;5031061;28;20062;-76
2022/01/22 12:25:03;;;;;;;31.30;18.05;;;;;;;5.75;91.88;103326.91;5032439;28;20433;-76
2022/01/22 12:27:49;;;;;;;34.80;18.27;;;;;;;5.74;92.60;103325.16;5027205;28;20549;-76
2022/01/22 12:30:31;;;;;;;33.25;17.25;;;;;;;5.71;92.87;103327.84;5027280;28;20026;-76
2022/01/22 12:32:57;;;;;;;34.28;19.45;;;;;;;5.69;92.59;103334.09;5043049;28;20060;-76
2022/01/22 12:35:48;;;;;;;32.58;20.02;;;;;;;5.69;93.18;103331.44;5047284;28;20017;-76
2022/01/22 12:38:22;;;;;;;35.28;19.67;;;;;;;5.67;93.56;103328.78;5023800;28;20043;-76
2022/01/22 12:40:52;;;;;;;34.40;19.83;;;;;;;5.69;94.06;103326.09;5031412;28;20025;-76
2022/01/22 12:43:28;;;;;;;33.65;19.35;;;;;;;5.70;93.31;103330.53;5026596;28;20049;-76
2022/01/22 12:45:59;;;;;;;36.47;21.27;;;;;;;5.70;93.41;103322.53;5030787;28;20017;-76
2022/01/22 12:48:32;;;;;;;37.00;20.00;;;;;;;5.69;93.47;103320.75;5020192;28;20033;-76
2022/01/22 12:51:02;;;;;;;40.97;21.48;;;;;;;5.69;93.40;103332.31;5035457;28;20056;-76